sensor_id;sensor_type;location;lat;lon;timestamp;P1;durP1;ratioP1;P2;durP2;ratioP2
70838;SDS011;58464;52.298;4.852;2022-09-09T00:00:14;4.78;;;1.25;;
70838;SDS011;58464;52.298;4.852;2022-09-09T00:02:44;3.83;;;1.50;;
70838;SDS011;58464;52.298;4.852;2022-09-09T00:05:22;3.17;;;1.50;;
70838;SDS011;58464;52.298;4.852;2022-09-09T00:07:54;4.88;;;1.65;;
70838;SDS011;58464;52.298;4.852;2022-09-09T00:10:28;3.55;;;1.88;;
70838;SDS011;58464;52.298;4.852;2022-09-09T00:21:23;2.75;;;1.48;;
70838;SDS011;58464;52.298;4.852;2022-09-09T00:23:57;3.97;;;1.90;;
70838;SDS011;58464;52.298;4.852;2022-09-09T00:31:39;9.38;;;2.17;;
70838;SDS011;58464;52.298;4.852;2022-09-09T00:34:15;6.75;;;2.70;;
70838;SDS011;58464;52.298;4.852;2022-09-09T00:36:48;8.07;;;2.95;;
70838;SDS011;58464;52.298;4.852;2022-09-09T00:39:25;6.70;;;2.55;;
70838;SDS011;58464;52.298;4.852;2022-09-09T00:42:40;6.75;;;3.17;;
70838;SDS011;58464;52.298;4.852;2022-09-09T00:55:38;11.65;;;3.80;;
70838;SDS011;58464;52.298;4.852;2022-09-09T00:58:09;8.18;;;3.63;;
70838;SDS011;58464;52.298;4.852;2022-09-09T01:00:39;8.20;;;4.15;;
70838;SDS011;58464;52.298;4.852;2022-09-09T01:11:26;13.48;;;4.00;;
70838;SDS011;58464;52.298;4.852;2022-09-09T01:14:47;13.88;;;4.20;;
70838;SDS011;58464;52.298;4.852;2022-09-09T01:17:18;13.07;;;4.30;;
70838;SDS011;58464;52.298;4.852;2022-09-09T01:20:31;8.88;;;4.07;;
70838;SDS011;58464;52.298;4.852;2022-09-09T01:23:30;7.88;;;4.43;;
70838;SDS011;58464;52.298;4.852;2022-09-09T01:29:00;9.10;;;4.32;;
70838;SDS011;58464;52.298;4.852;2022-09-09T01:31:39;8.38;;;4.68;;
70838;SDS011;58464;52.298;4.852;2022-09-09T01:34:10;7.47;;;4.45;;
70838;SDS011;58464;52.298;4.852;2022-09-09T01:39:09;18.33;;;5.82;;
70838;SDS011;58464;52.298;4.852;2022-09-09T01:41:35;19.60;;;5.28;;
70838;SDS011;58464;52.298;4.852;2022-09-09T01:44:00;11.63;;;5.30;;
70838;SDS011;58464;52.298;4.852;2022-09-09T01:46:26;9.10;;;4.90;;
70838;SDS011;58464;52.298;4.852;2022-09-09T01:48:53;8.60;;;5.35;;
70838;SDS011;58464;52.298;4.852;2022-09-09T01:51:20;12.32;;;5.43;;
70838;SDS011;58464;52.298;4.852;2022-09-09T01:53:46;11.88;;;5.55;;
70838;SDS011;58464;52.298;4.852;2022-09-09T01:56:21;14.30;;;6.00;;
70838;SDS011;58464;52.298;4.852;2022-09-09T01:59:03;11.18;;;5.22;;
70838;SDS011;58464;52.298;4.852;2022-09-09T02:07:55;8.73;;;5.13;;
70838;SDS011;58464;52.298;4.852;2022-09-09T02:10:12;7.18;;;4.60;;
70838;SDS011;58464;52.298;4.852;2022-09-09T02:12:44;14.10;;;5.93;;
70838;SDS011;58464;52.298;4.852;2022-09-09T02:15:17;8.32;;;5.05;;
70838;SDS011;58464;52.298;4.852;2022-09-09T02:17:54;11.00;;;5.85;;
70838;SDS011;58464;52.298;4.852;2022-09-09T02:20:22;9.73;;;5.28;;
70838;SDS011;58464;52.298;4.852;2022-09-09T02:22:51;10.65;;;6.07;;
70838;SDS011;58464;52.298;4.852;2022-09-09T02:25:20;11.77;;;5.78;;
70838;SDS011;58464;52.298;4.852;2022-09-09T02:27:48;11.18;;;5.65;;
70838;SDS011;58464;52.298;4.852;2022-09-09T02:30:15;13.48;;;6.20;;
70838;SDS011;58464;52.298;4.852;2022-09-09T02:32:41;8.90;;;5.72;;
70838;SDS011;58464;52.298;4.852;2022-09-09T02:35:09;12.43;;;5.60;;
70838;SDS011;58464;52.298;4.852;2022-09-09T02:37:39;12.07;;;5.78;;
70838;SDS011;58464;52.298;4.852;2022-09-09T02:40:07;12.00;;;5.88;;
70838;SDS011;58464;52.298;4.852;2022-09-09T02:42:53;10.00;;;5.70;;
70838;SDS011;58464;52.298;4.852;2022-09-09T02:45:20;7.47;;;4.90;;
70838;SDS011;58464;52.298;4.852;2022-09-09T02:47:56;12.77;;;6.00;;
70838;SDS011;58464;52.298;4.852;2022-09-09T02:50:33;11.25;;;6.07;;
70838;SDS011;58464;52.298;4.852;2022-09-09T02:56:00;8.98;;;5.35;;
70838;SDS011;58464;52.298;4.852;2022-09-09T02:58:48;6.70;;;4.80;;
70838;SDS011;58464;52.298;4.852;2022-09-09T03:01:17;14.10;;;6.22;;
70838;SDS011;58464;52.298;4.852;2022-09-09T03:03:42;9.60;;;5.22;;
70838;SDS011;58464;52.298;4.852;2022-09-09T03:06:09;11.98;;;5.22;;
70838;SDS011;58464;52.298;4.852;2022-09-09T03:08:36;11.82;;;5.50;;
70838;SDS011;58464;52.298;4.852;2022-09-09T03:11:02;11.57;;;6.05;;
70838;SDS011;58464;52.298;4.852;2022-09-09T03:13:28;13.18;;;6.15;;
70838;SDS011;58464;52.298;4.852;2022-09-09T03:15:54;17.98;;;5.88;;
70838;SDS011;58464;52.298;4.852;2022-09-09T03:18:20;8.38;;;5.13;;
70838;SDS011;58464;52.298;4.852;2022-09-09T03:20:45;11.60;;;5.95;;
70838;SDS011;58464;52.298;4.852;2022-09-09T03:23:13;11.55;;;5.75;;
70838;SDS011;58464;52.298;4.852;2022-09-09T03:25:39;13.13;;;5.78;;
70838;SDS011;58464;52.298;4.852;2022-09-09T03:28:04;14.40;;;6.55;;
70838;SDS011;58464;52.298;4.852;2022-09-09T03:30:30;10.30;;;5.68;;
70838;SDS011;58464;52.298;4.852;2022-09-09T03:32:55;13.77;;;6.60;;
70838;SDS011;58464;52.298;4.852;2022-09-09T03:35:21;14.00;;;6.20;;
70838;SDS011;58464;52.298;4.852;2022-09-09T03:37:47;12.30;;;6.47;;
70838;SDS011;58464;52.298;4.852;2022-09-09T03:40:13;12.45;;;6.43;;
70838;SDS011;58464;52.298;4.852;2022-09-09T03:42:38;8.32;;;6.05;;
70838;SDS011;58464;52.298;4.852;2022-09-09T03:45:05;9.57;;;6.10;;
70838;SDS011;58464;52.298;4.852;2022-09-09T03:47:32;12.50;;;7.20;;
70838;SDS011;58464;52.298;4.852;2022-09-09T03:49:58;15.20;;;6.80;;
70838;SDS011;58464;52.298;4.852;2022-09-09T03:52:23;12.52;;;6.43;;
70838;SDS011;58464;52.298;4.852;2022-09-09T03:54:51;14.15;;;6.63;;
70838;SDS011;58464;52.298;4.852;2022-09-09T03:57:19;10.43;;;6.43;;
70838;SDS011;58464;52.298;4.852;2022-09-09T03:59:45;13.43;;;6.65;;
70838;SDS011;58464;52.298;4.852;2022-09-09T04:02:10;11.93;;;6.55;;
70838;SDS011;58464;52.298;4.852;2022-09-09T04:04:36;9.35;;;6.68;;
70838;SDS011;58464;52.298;4.852;2022-09-09T04:07:01;9.18;;;7.32;;
70838;SDS011;58464;52.298;4.852;2022-09-09T04:09:27;11.38;;;6.75;;
70838;SDS011;58464;52.298;4.852;2022-09-09T04:11:53;10.43;;;6.30;;
70838;SDS011;58464;52.298;4.852;2022-09-09T04:14:18;10.15;;;6.47;;
70838;SDS011;58464;52.298;4.852;2022-09-09T04:16:45;10.48;;;6.18;;
70838;SDS011;58464;52.298;4.852;2022-09-09T04:19:11;12.80;;;6.03;;
70838;SDS011;58464;52.298;4.852;2022-09-09T04:21:38;12.57;;;6.38;;
70838;SDS011;58464;52.298;4.852;2022-09-09T04:24:05;8.27;;;6.10;;
70838;SDS011;58464;52.298;4.852;2022-09-09T04:26:32;11.85;;;6.50;;
70838;SDS011;58464;52.298;4.852;2022-09-09T04:28:57;11.63;;;5.93;;
70838;SDS011;58464;52.298;4.852;2022-09-09T04:31:23;13.23;;;6.30;;
70838;SDS011;58464;52.298;4.852;2022-09-09T04:33:49;9.02;;;4.88;;
70838;SDS011;58464;52.298;4.852;2022-09-09T04:36:15;11.07;;;5.88;;
70838;SDS011;58464;52.298;4.852;2022-09-09T04:38:41;9.40;;;5.05;;
70838;SDS011;58464;52.298;4.852;2022-09-09T04:41:07;7.38;;;4.57;;
70838;SDS011;58464;52.298;4.852;2022-09-09T04:43:33;10.60;;;4.53;;
70838;SDS011;58464;52.298;4.852;2022-09-09T04:45:59;13.00;;;5.00;;
70838;SDS011;58464;52.298;4.852;2022-09-09T04:48:25;15.13;;;4.47;;
70838;SDS011;58464;52.298;4.852;2022-09-09T04:53:23;8.18;;;3.80;;
70838;SDS011;58464;52.298;4.852;2022-09-09T04:55:50;9.40;;;4.28;;
70838;SDS011;58464;52.298;4.852;2022-09-09T04:58:15;14.38;;;4.40;;
70838;SDS011;58464;52.298;4.852;2022-09-09T05:00:41;5.97;;;3.22;;
70838;SDS011;58464;52.298;4.852;2022-09-09T05:03:07;7.45;;;3.45;;
70838;SDS011;58464;52.298;4.852;2022-09-09T05:05:33;9.30;;;3.85;;
70838;SDS011;58464;52.298;4.852;2022-09-09T05:08:02;11.57;;;3.40;;
70838;SDS011;58464;52.298;4.852;2022-09-09T05:10:34;10.43;;;3.50;;
70838;SDS011;58464;52.298;4.852;2022-09-09T05:13:02;13.48;;;3.55;;
70838;SDS011;58464;52.298;4.852;2022-09-09T05:15:29;7.05;;;3.20;;
70838;SDS011;58464;52.298;4.852;2022-09-09T05:17:58;9.65;;;3.30;;
70838;SDS011;58464;52.298;4.852;2022-09-09T05:20:25;13.23;;;3.20;;
70838;SDS011;58464;52.298;4.852;2022-09-09T05:22:54;10.35;;;2.85;;
70838;SDS011;58464;52.298;4.852;2022-09-09T05:25:21;7.20;;;2.90;;
70838;SDS011;58464;52.298;4.852;2022-09-09T05:27:50;7.93;;;3.42;;
70838;SDS011;58464;52.298;4.852;2022-09-09T05:30:16;8.05;;;3.20;;
70838;SDS011;58464;52.298;4.852;2022-09-09T05:32:43;10.20;;;3.38;;
70838;SDS011;58464;52.298;4.852;2022-09-09T05:35:09;11.00;;;2.92;;
70838;SDS011;58464;52.298;4.852;2022-09-09T05:37:35;8.13;;;3.25;;
70838;SDS011;58464;52.298;4.852;2022-09-09T05:40:00;9.07;;;2.67;;
70838;SDS011;58464;52.298;4.852;2022-09-09T05:42:29;13.65;;;3.92;;
70838;SDS011;58464;52.298;4.852;2022-09-09T05:44:55;6.07;;;2.65;;
70838;SDS011;58464;52.298;4.852;2022-09-09T05:47:21;4.82;;;2.58;;
70838;SDS011;58464;52.298;4.852;2022-09-09T05:49:46;13.85;;;3.13;;
70838;SDS011;58464;52.298;4.852;2022-09-09T05:52:13;7.10;;;3.13;;
70838;SDS011;58464;52.298;4.852;2022-09-09T05:54:41;11.93;;;3.42;;
70838;SDS011;58464;52.298;4.852;2022-09-09T05:57:08;22.38;;;3.13;;
70838;SDS011;58464;52.298;4.852;2022-09-09T05:59:33;7.80;;;2.55;;
70838;SDS011;58464;52.298;4.852;2022-09-09T06:01:59;5.55;;;2.65;;
70838;SDS011;58464;52.298;4.852;2022-09-09T06:04:24;10.40;;;3.00;;
70838;SDS011;58464;52.298;4.852;2022-09-09T06:06:49;10.63;;;2.67;;
70838;SDS011;58464;52.298;4.852;2022-09-09T06:09:15;10.10;;;3.60;;
70838;SDS011;58464;52.298;4.852;2022-09-09T06:11:42;10.10;;;3.03;;
70838;SDS011;58464;52.298;4.852;2022-09-09T06:14:08;10.20;;;2.35;;
70838;SDS011;58464;52.298;4.852;2022-09-09T06:16:34;9.27;;;2.72;;
70838;SDS011;58464;52.298;4.852;2022-09-09T06:19:00;11.68;;;2.75;;
70838;SDS011;58464;52.298;4.852;2022-09-09T06:21:32;9.10;;;2.50;;
70838;SDS011;58464;52.298;4.852;2022-09-09T06:24:00;10.35;;;3.25;;
70838;SDS011;58464;52.298;4.852;2022-09-09T06:26:27;8.27;;;2.47;;
70838;SDS011;58464;52.298;4.852;2022-09-09T06:28:56;6.10;;;2.33;;
70838;SDS011;58464;52.298;4.852;2022-09-09T06:31:23;15.10;;;3.38;;
70838;SDS011;58464;52.298;4.852;2022-09-09T06:33:51;10.55;;;2.83;;
70838;SDS011;58464;52.298;4.852;2022-09-09T06:36:24;9.27;;;2.50;;
70838;SDS011;58464;52.298;4.852;2022-09-09T06:38:51;8.63;;;2.50;;
70838;SDS011;58464;52.298;4.852;2022-09-09T06:41:17;7.82;;;2.20;;
70838;SDS011;58464;52.298;4.852;2022-09-09T06:43:44;15.18;;;3.42;;
70838;SDS011;58464;52.298;4.852;2022-09-09T06:46:14;13.90;;;3.90;;
70838;SDS011;58464;52.298;4.852;2022-09-09T06:48:41;15.57;;;3.35;;
70838;SDS011;58464;52.298;4.852;2022-09-09T06:51:10;13.65;;;2.55;;
70838;SDS011;58464;52.298;4.852;2022-09-09T06:53:38;17.45;;;2.92;;
70838;SDS011;58464;52.298;4.852;2022-09-09T06:58:57;8.45;;;2.13;;
70838;SDS011;58464;52.298;4.852;2022-09-09T07:01:27;10.30;;;2.00;;
70838;SDS011;58464;52.298;4.852;2022-09-09T07:03:55;7.88;;;2.40;;
70838;SDS011;58464;52.298;4.852;2022-09-09T07:06:29;10.63;;;2.47;;
70838;SDS011;58464;52.298;4.852;2022-09-09T07:08:57;8.73;;;3.08;;
70838;SDS011;58464;52.298;4.852;2022-09-09T07:11:31;13.68;;;2.53;;
70838;SDS011;58464;52.298;4.852;2022-09-09T07:13:58;12.93;;;2.65;;
70838;SDS011;58464;52.298;4.852;2022-09-09T07:16:24;10.82;;;2.28;;
70838;SDS011;58464;52.298;4.852;2022-09-09T07:18:52;18.25;;;2.88;;
70838;SDS011;58464;52.298;4.852;2022-09-09T07:21:23;8.55;;;2.80;;
70838;SDS011;58464;52.298;4.852;2022-09-09T07:23:49;13.63;;;3.33;;
70838;SDS011;58464;52.298;4.852;2022-09-09T07:26:16;10.00;;;2.53;;
70838;SDS011;58464;52.298;4.852;2022-09-09T07:28:44;9.80;;;2.50;;
70838;SDS011;58464;52.298;4.852;2022-09-09T07:31:14;12.05;;;2.88;;
70838;SDS011;58464;52.298;4.852;2022-09-09T07:33:41;11.90;;;2.92;;
70838;SDS011;58464;52.298;4.852;2022-09-09T07:36:08;14.02;;;3.47;;
70838;SDS011;58464;52.298;4.852;2022-09-09T07:41:10;14.93;;;3.15;;
70838;SDS011;58464;52.298;4.852;2022-09-09T07:43:41;12.10;;;2.75;;
70838;SDS011;58464;52.298;4.852;2022-09-09T07:46:07;14.40;;;2.97;;
70838;SDS011;58464;52.298;4.852;2022-09-09T07:48:34;14.48;;;3.78;;
70838;SDS011;58464;52.298;4.852;2022-09-09T07:51:09;13.25;;;3.13;;
70838;SDS011;58464;52.298;4.852;2022-09-09T07:56:12;12.68;;;3.20;;
70838;SDS011;58464;52.298;4.852;2022-09-09T07:58:44;10.27;;;2.88;;
70838;SDS011;58464;52.298;4.852;2022-09-09T08:01:13;10.73;;;2.65;;
70838;SDS011;58464;52.298;4.852;2022-09-09T08:03:55;12.85;;;3.30;;
70838;SDS011;58464;52.298;4.852;2022-09-09T08:06:26;14.43;;;3.53;;
70838;SDS011;58464;52.298;4.852;2022-09-09T08:08:53;12.07;;;3.13;;
70838;SDS011;58464;52.298;4.852;2022-09-09T08:11:21;9.63;;;2.80;;
70838;SDS011;58464;52.298;4.852;2022-09-09T08:13:49;13.25;;;3.25;;
70838;SDS011;58464;52.298;4.852;2022-09-09T08:16:19;15.80;;;3.10;;
70838;SDS011;58464;52.298;4.852;2022-09-09T08:18:48;13.65;;;3.22;;
70838;SDS011;58464;52.298;4.852;2022-09-09T08:21:15;13.15;;;3.00;;
70838;SDS011;58464;52.298;4.852;2022-09-09T08:23:50;14.45;;;3.25;;
70838;SDS011;58464;52.298;4.852;2022-09-09T08:26:21;16.85;;;3.28;;
70838;SDS011;58464;52.298;4.852;2022-09-09T08:28:52;11.52;;;3.20;;
70838;SDS011;58464;52.298;4.852;2022-09-09T08:31:19;10.63;;;2.97;;
70838;SDS011;58464;52.298;4.852;2022-09-09T08:33:47;11.55;;;3.00;;
70838;SDS011;58464;52.298;4.852;2022-09-09T08:36:14;12.00;;;4.22;;
70838;SDS011;58464;52.298;4.852;2022-09-09T08:38:42;10.68;;;3.17;;
70838;SDS011;58464;52.298;4.852;2022-09-09T08:43:46;12.52;;;3.38;;
70838;SDS011;58464;52.298;4.852;2022-09-09T08:46:36;12.85;;;2.90;;
70838;SDS011;58464;52.298;4.852;2022-09-09T08:49:03;16.65;;;3.22;;
70838;SDS011;58464;52.298;4.852;2022-09-09T08:51:48;17.13;;;3.13;;
70838;SDS011;58464;52.298;4.852;2022-09-09T08:54:15;8.95;;;2.75;;
70838;SDS011;58464;52.298;4.852;2022-09-09T08:56:43;8.85;;;2.83;;
70838;SDS011;58464;52.298;4.852;2022-09-09T08:59:09;10.30;;;2.75;;
70838;SDS011;58464;52.298;4.852;2022-09-09T09:01:42;11.77;;;2.90;;
70838;SDS011;58464;52.298;4.852;2022-09-09T09:07:18;11.40;;;2.45;;
70838;SDS011;58464;52.298;4.852;2022-09-09T09:13:17;12.70;;;3.00;;
70838;SDS011;58464;52.298;4.852;2022-09-09T09:15:55;8.32;;;2.85;;
70838;SDS011;58464;52.298;4.852;2022-09-09T09:18:27;16.30;;;3.53;;
70838;SDS011;58464;52.298;4.852;2022-09-09T09:23:33;10.77;;;2.72;;
70838;SDS011;58464;52.298;4.852;2022-09-09T09:26:07;10.85;;;3.78;;
70838;SDS011;58464;52.298;4.852;2022-09-09T09:28:36;14.05;;;2.65;;
70838;SDS011;58464;52.298;4.852;2022-09-09T09:33:37;9.48;;;2.67;;
70838;SDS011;58464;52.298;4.852;2022-09-09T09:36:17;20.45;;;3.53;;
70838;SDS011;58464;52.298;4.852;2022-09-09T09:38:54;12.32;;;2.58;;
70838;SDS011;58464;52.298;4.852;2022-09-09T09:41:41;11.45;;;2.65;;
70838;SDS011;58464;52.298;4.852;2022-09-09T09:47:06;9.65;;;2.65;;
70838;SDS011;58464;52.298;4.852;2022-09-09T09:49:33;10.07;;;2.55;;
70838;SDS011;58464;52.298;4.852;2022-09-09T09:52:03;12.77;;;2.75;;
70838;SDS011;58464;52.298;4.852;2022-09-09T09:54:32;8.93;;;2.35;;
70838;SDS011;58464;52.298;4.852;2022-09-09T09:57:11;15.23;;;2.90;;
70838;SDS011;58464;52.298;4.852;2022-09-09T09:59:39;10.30;;;2.65;;
70838;SDS011;58464;52.298;4.852;2022-09-09T10:02:11;9.50;;;2.50;;
70838;SDS011;58464;52.298;4.852;2022-09-09T10:04:38;13.20;;;3.55;;
70838;SDS011;58464;52.298;4.852;2022-09-09T10:07:16;12.40;;;2.78;;
70838;SDS011;58464;52.298;4.852;2022-09-09T10:09:53;10.98;;;2.63;;
70838;SDS011;58464;52.298;4.852;2022-09-09T10:23:11;11.20;;;3.17;;
70838;SDS011;58464;52.298;4.852;2022-09-09T10:34:00;9.00;;;2.05;;
70838;SDS011;58464;52.298;4.852;2022-09-09T10:36:40;8.18;;;2.17;;
70838;SDS011;58464;52.298;4.852;2022-09-09T10:41:44;9.98;;;2.03;;
70838;SDS011;58464;52.298;4.852;2022-09-09T10:50:05;7.30;;;2.30;;
70838;SDS011;58464;52.298;4.852;2022-09-09T10:55:20;10.75;;;1.73;;
70838;SDS011;58464;52.298;4.852;2022-09-09T10:57:51;9.80;;;2.10;;
70838;SDS011;58464;52.298;4.852;2022-09-09T11:00:20;7.72;;;2.35;;
70838;SDS011;58464;52.298;4.852;2022-09-09T11:02:56;6.32;;;1.75;;
70838;SDS011;58464;52.298;4.852;2022-09-09T11:08:13;10.88;;;2.28;;
70838;SDS011;58464;52.298;4.852;2022-09-09T11:10:58;12.90;;;2.20;;
70838;SDS011;58464;52.298;4.852;2022-09-09T11:13:34;7.38;;;2.08;;
70838;SDS011;58464;52.298;4.852;2022-09-09T11:19:13;7.50;;;2.50;;
70838;SDS011;58464;52.298;4.852;2022-09-09T11:22:04;6.68;;;1.70;;
70838;SDS011;58464;52.298;4.852;2022-09-09T11:24:41;7.90;;;1.85;;
70838;SDS011;58464;52.298;4.852;2022-09-09T11:27:17;13.13;;;2.83;;
70838;SDS011;58464;52.298;4.852;2022-09-09T11:41:02;6.53;;;1.95;;
70838;SDS011;58464;52.298;4.852;2022-09-09T11:43:33;8.43;;;1.92;;
70838;SDS011;58464;52.298;4.852;2022-09-09T11:46:05;7.85;;;2.10;;
70838;SDS011;58464;52.298;4.852;2022-09-09T11:48:33;5.15;;;2.03;;
70838;SDS011;58464;52.298;4.852;2022-09-09T11:51:02;10.57;;;1.70;;
70838;SDS011;58464;52.298;4.852;2022-09-09T11:53:36;5.88;;;1.60;;
70838;SDS011;58464;52.298;4.852;2022-09-09T11:56:26;8.35;;;1.70;;
70838;SDS011;58464;52.298;4.852;2022-09-09T11:59:02;4.93;;;1.40;;
70838;SDS011;58464;52.298;4.852;2022-09-09T12:01:41;6.13;;;1.58;;
70838;SDS011;58464;52.298;4.852;2022-09-09T12:12:06;6.68;;;1.67;;
70838;SDS011;58464;52.298;4.852;2022-09-09T12:19:39;5.00;;;1.63;;
70838;SDS011;58464;52.298;4.852;2022-09-09T12:22:15;6.00;;;1.50;;
70838;SDS011;58464;52.298;4.852;2022-09-09T12:27:36;5.05;;;1.48;;
70838;SDS011;58464;52.298;4.852;2022-09-09T12:30:11;7.63;;;1.70;;
70838;SDS011;58464;52.298;4.852;2022-09-09T12:32:39;4.20;;;1.90;;
70838;SDS011;58464;52.298;4.852;2022-09-09T12:35:12;7.47;;;1.90;;
70838;SDS011;58464;52.298;4.852;2022-09-09T12:40:21;8.98;;;2.15;;
70838;SDS011;58464;52.298;4.852;2022-09-09T12:42:48;11.00;;;1.88;;
70838;SDS011;58464;52.298;4.852;2022-09-09T12:45:16;4.82;;;1.70;;
70838;SDS011;58464;52.298;4.852;2022-09-09T12:50:57;4.85;;;1.90;;
70838;SDS011;58464;52.298;4.852;2022-09-09T12:53:26;10.45;;;2.13;;
70838;SDS011;58464;52.298;4.852;2022-09-09T12:56:04;13.63;;;2.83;;
70838;SDS011;58464;52.298;4.852;2022-09-09T12:58:33;4.40;;;2.03;;
70838;SDS011;58464;52.298;4.852;2022-09-09T13:01:01;13.25;;;2.10;;
70838;SDS011;58464;52.298;4.852;2022-09-09T13:03:31;5.95;;;2.03;;
70838;SDS011;58464;52.298;4.852;2022-09-09T13:05:59;7.68;;;1.98;;
70838;SDS011;58464;52.298;4.852;2022-09-09T13:08:38;8.88;;;2.45;;
70838;SDS011;58464;52.298;4.852;2022-09-09T13:11:06;10.15;;;1.92;;
70838;SDS011;58464;52.298;4.852;2022-09-09T13:13:37;7.38;;;2.58;;
70838;SDS011;58464;52.298;4.852;2022-09-09T13:16:04;5.90;;;2.03;;
70838;SDS011;58464;52.298;4.852;2022-09-09T13:18:36;8.80;;;2.40;;
70838;SDS011;58464;52.298;4.852;2022-09-09T13:21:05;7.72;;;2.30;;
70838;SDS011;58464;52.298;4.852;2022-09-09T13:23:31;10.20;;;3.17;;
70838;SDS011;58464;52.298;4.852;2022-09-09T13:26:00;5.72;;;2.38;;
70838;SDS011;58464;52.298;4.852;2022-09-09T13:28:29;12.10;;;2.60;;
70838;SDS011;58464;52.298;4.852;2022-09-09T13:31:05;5.85;;;2.22;;
70838;SDS011;58464;52.298;4.852;2022-09-09T13:33:45;8.40;;;2.83;;
70838;SDS011;58464;52.298;4.852;2022-09-09T13:36:12;10.23;;;2.38;;
70838;SDS011;58464;52.298;4.852;2022-09-09T13:41:35;7.72;;;2.42;;
70838;SDS011;58464;52.298;4.852;2022-09-09T13:44:14;8.30;;;1.88;;
70838;SDS011;58464;52.298;4.852;2022-09-09T13:46:48;7.40;;;2.17;;
70838;SDS011;58464;52.298;4.852;2022-09-09T13:49:26;6.25;;;1.80;;
70838;SDS011;58464;52.298;4.852;2022-09-09T13:52:03;4.88;;;1.52;;
70838;SDS011;58464;52.298;4.852;2022-09-09T13:54:36;4.10;;;1.50;;
70838;SDS011;58464;52.298;4.852;2022-09-09T13:57:04;5.05;;;1.50;;
70838;SDS011;58464;52.298;4.852;2022-09-09T13:59:29;9.60;;;1.75;;
70838;SDS011;58464;52.298;4.852;2022-09-09T14:01:56;6.22;;;1.80;;
70838;SDS011;58464;52.298;4.852;2022-09-09T14:04:22;5.20;;;1.50;;
70838;SDS011;58464;52.298;4.852;2022-09-09T14:06:48;4.78;;;1.70;;
70838;SDS011;58464;52.298;4.852;2022-09-09T14:09:15;5.32;;;1.90;;
70838;SDS011;58464;52.298;4.852;2022-09-09T14:11:43;3.67;;;1.63;;
70838;SDS011;58464;52.298;4.852;2022-09-09T14:14:10;4.63;;;1.75;;
70838;SDS011;58464;52.298;4.852;2022-09-09T14:16:36;5.60;;;1.23;;
70838;SDS011;58464;52.298;4.852;2022-09-09T14:19:02;4.50;;;1.30;;
70838;SDS011;58464;52.298;4.852;2022-09-09T14:21:28;3.08;;;1.30;;
70838;SDS011;58464;52.298;4.852;2022-09-09T14:23:53;4.60;;;1.42;;
70838;SDS011;58464;52.298;4.852;2022-09-09T14:26:20;5.78;;;1.70;;
70838;SDS011;58464;52.298;4.852;2022-09-09T14:28:46;6.70;;;1.45;;
70838;SDS011;58464;52.298;4.852;2022-09-09T14:31:12;4.45;;;1.10;;
70838;SDS011;58464;52.298;4.852;2022-09-09T14:33:38;5.95;;;1.55;;
70838;SDS011;58464;52.298;4.852;2022-09-09T14:36:04;4.72;;;1.38;;
70838;SDS011;58464;52.298;4.852;2022-09-09T14:38:33;8.68;;;2.20;;
70838;SDS011;58464;52.298;4.852;2022-09-09T14:41:04;3.35;;;1.73;;
70838;SDS011;58464;52.298;4.852;2022-09-09T14:43:34;5.63;;;1.60;;
70838;SDS011;58464;52.298;4.852;2022-09-09T14:46:09;5.45;;;2.28;;
70838;SDS011;58464;52.298;4.852;2022-09-09T14:48:37;3.55;;;1.35;;
70838;SDS011;58464;52.298;4.852;2022-09-09T14:51:06;4.05;;;1.42;;
70838;SDS011;58464;52.298;4.852;2022-09-09T14:53:37;4.78;;;1.52;;
70838;SDS011;58464;52.298;4.852;2022-09-09T14:56:04;4.53;;;1.80;;
70838;SDS011;58464;52.298;4.852;2022-09-09T14:58:30;5.32;;;1.67;;
70838;SDS011;58464;52.298;4.852;2022-09-09T15:01:01;5.35;;;1.13;;
70838;SDS011;58464;52.298;4.852;2022-09-09T15:03:27;3.78;;;1.30;;
70838;SDS011;58464;52.298;4.852;2022-09-09T15:05:53;2.45;;;0.98;;
70838;SDS011;58464;52.298;4.852;2022-09-09T15:08:18;3.75;;;1.13;;
70838;SDS011;58464;52.298;4.852;2022-09-09T15:10:43;3.50;;;0.95;;
70838;SDS011;58464;52.298;4.852;2022-09-09T15:13:09;4.03;;;1.15;;
70838;SDS011;58464;52.298;4.852;2022-09-09T15:15:35;4.03;;;0.93;;
70838;SDS011;58464;52.298;4.852;2022-09-09T15:18:00;2.28;;;1.05;;
70838;SDS011;58464;52.298;4.852;2022-09-09T15:20:26;3.83;;;1.35;;
70838;SDS011;58464;52.298;4.852;2022-09-09T15:22:51;4.68;;;1.30;;
70838;SDS011;58464;52.298;4.852;2022-09-09T15:25:17;7.07;;;1.52;;
70838;SDS011;58464;52.298;4.852;2022-09-09T15:27:43;8.57;;;2.00;;
70838;SDS011;58464;52.298;4.852;2022-09-09T15:30:09;7.03;;;2.95;;
70838;SDS011;58464;52.298;4.852;2022-09-09T15:32:35;8.10;;;2.15;;
70838;SDS011;58464;52.298;4.852;2022-09-09T15:35:01;8.05;;;2.63;;
70838;SDS011;58464;52.298;4.852;2022-09-09T15:37:26;9.50;;;1.85;;
70838;SDS011;58464;52.298;4.852;2022-09-09T15:39:51;7.53;;;2.28;;
70838;SDS011;58464;52.298;4.852;2022-09-09T15:42:17;6.93;;;1.88;;
70838;SDS011;58464;52.298;4.852;2022-09-09T15:44:42;5.75;;;2.10;;
70838;SDS011;58464;52.298;4.852;2022-09-09T15:47:10;14.57;;;3.17;;
70838;SDS011;58464;52.298;4.852;2022-09-09T15:49:39;6.55;;;1.60;;
70838;SDS011;58464;52.298;4.852;2022-09-09T15:52:05;9.55;;;3.35;;
70838;SDS011;58464;52.298;4.852;2022-09-09T15:54:32;6.20;;;2.72;;
70838;SDS011;58464;52.298;4.852;2022-09-09T15:57:00;8.90;;;2.60;;
70838;SDS011;58464;52.298;4.852;2022-09-09T15:59:29;8.07;;;2.00;;
70838;SDS011;58464;52.298;4.852;2022-09-09T16:02:00;7.25;;;1.95;;
70838;SDS011;58464;52.298;4.852;2022-09-09T16:04:26;9.10;;;1.88;;
70838;SDS011;58464;52.298;4.852;2022-09-09T16:07:01;8.88;;;2.00;;
70838;SDS011;58464;52.298;4.852;2022-09-09T16:09:28;12.15;;;3.45;;
70838;SDS011;58464;52.298;4.852;2022-09-09T16:11:57;6.82;;;2.55;;
70838;SDS011;58464;52.298;4.852;2022-09-09T16:14:27;11.63;;;3.20;;
70838;SDS011;58464;52.298;4.852;2022-09-09T16:16:53;7.22;;;2.67;;
70838;SDS011;58464;52.298;4.852;2022-09-09T16:19:19;9.52;;;2.42;;
70838;SDS011;58464;52.298;4.852;2022-09-09T16:21:46;9.63;;;2.80;;
70838;SDS011;58464;52.298;4.852;2022-09-09T16:24:14;6.22;;;2.05;;
70838;SDS011;58464;52.298;4.852;2022-09-09T16:26:43;5.90;;;1.85;;
70838;SDS011;58464;52.298;4.852;2022-09-09T16:29:11;4.68;;;1.42;;
70838;SDS011;58464;52.298;4.852;2022-09-09T16:31:37;8.75;;;1.98;;
70838;SDS011;58464;52.298;4.852;2022-09-09T16:34:03;6.18;;;1.83;;
70838;SDS011;58464;52.298;4.852;2022-09-09T16:36:29;4.90;;;1.75;;
70838;SDS011;58464;52.298;4.852;2022-09-09T16:38:58;9.82;;;2.30;;
70838;SDS011;58464;52.298;4.852;2022-09-09T16:41:27;6.22;;;2.42;;
70838;SDS011;58464;52.298;4.852;2022-09-09T16:43:56;11.20;;;3.03;;
70838;SDS011;58464;52.298;4.852;2022-09-09T16:46:25;4.13;;;1.88;;
70838;SDS011;58464;52.298;4.852;2022-09-09T16:48:52;14.52;;;2.80;;
70838;SDS011;58464;52.298;4.852;2022-09-09T16:51:23;9.13;;;2.33;;
70838;SDS011;58464;52.298;4.852;2022-09-09T16:53:51;8.30;;;1.55;;
70838;SDS011;58464;52.298;4.852;2022-09-09T16:56:18;4.47;;;1.80;;
70838;SDS011;58464;52.298;4.852;2022-09-09T16:58:53;8.65;;;2.47;;
70838;SDS011;58464;52.298;4.852;2022-09-09T17:01:23;8.18;;;2.20;;
70838;SDS011;58464;52.298;4.852;2022-09-09T17:03:53;4.53;;;1.55;;
70838;SDS011;58464;52.298;4.852;2022-09-09T17:06:20;5.50;;;1.38;;
70838;SDS011;58464;52.298;4.852;2022-09-09T17:08:46;5.15;;;1.35;;
70838;SDS011;58464;52.298;4.852;2022-09-09T17:11:17;4.85;;;1.75;;
70838;SDS011;58464;52.298;4.852;2022-09-09T17:13:44;7.25;;;1.77;;
70838;SDS011;58464;52.298;4.852;2022-09-09T17:16:11;5.10;;;1.30;;
70838;SDS011;58464;52.298;4.852;2022-09-09T17:18:38;4.43;;;1.95;;
70838;SDS011;58464;52.298;4.852;2022-09-09T17:21:06;10.75;;;2.25;;